Thursday, August 16, 2018, 1:57 PM GMT
Back to Local

CYQI, Yarmouth, N. S.

Location: , , Canada Lat: 43.833
Local Time: 1:57 PM GMT (13:57 GMT) Lon: -66.083
Time Zone: GMT Elev: 141 ft

Show me the last for .
Show Decoded

2018-08-16 13:32 METAR CYQI 161332Z 31005KT 2SM BR BKN002 OVC006 20/20 A2993 RMK FG2SF3ST3 SLP137
                 DENSITY ALT 700FT =
2018-08-16 13:25 METAR CYQI 161325Z 30004KT 280V340 1 1/2SM BR BKN002 OVC006 19/19 A2993 RMK
                 FG3SF2ST3 SLP137 DENSITY ALT 700FT =
2018-08-16 13:19 METAR CYQI 161319Z 33005KT 290V350 1SM BR BKN002 OVC006 19/19 A2993 RMK
                 FG6SF1ST1 SLP136 DENSITY ALT 700FT =
2018-08-16 13:16 METAR CYQI 161316Z 32004KT 270V350 3/4SM BR OVC006 19/19 A2993 RMK FG6ST2 SLP136
                 DENSITY ALT 700FT =
2018-08-16 13:05 METAR CYQI 161305Z 30005KT 1/2SM FG OVC006 19/19 A2993 RMK FG6ST2 SLP136 DENSITY
                 ALT 700FT =
2018-08-16 13:00 METAR CYQI 161300Z 32005KT 1/4SM FG OVC006 19/19 A2993 RMK FG7ST1 SLP136 DENSITY
                 ALT 700FT =
2018-08-16 12:00 METAR CYQI 161200Z 24004KT 1/8SM FG VV001 18/18 A2992 RMK FG8 SLP134 DENSITY ALT
                 600FT =
2018-08-16 11:00 METAR CYQI 161100Z 30003KT 1/8SM FG VV002 18/18 A2991 RMK FG8 SLP130 DENSITY ALT
                 600FT =
2018-08-16 10:00 METAR CYQI 161000Z 28007KT 1/8SM FG VV001 17/17 A2989 RMK FG8 SLP125 DENSITY ALT
                 500FT =
2018-08-16 09:00 METAR CYQI 160900Z 29005KT 1/8SM FG VV001 17/17 A2989 RMK FG8 SLP123 DENSITY ALT
                 500FT =
2018-08-16 08:00 METAR CYQI 160800Z 28007KT 1/8SM FG VV001 17/17 A2987 RMK FG8 SLP118 DENSITY ALT
                 500FT =
2018-08-16 07:00 METAR CYQI 160700Z 00000KT 1/8SM FG VV001 17/17 A2985 RMK FG8 SLP111 DENSITY ALT
                 500FT =
2018-08-16 06:00 METAR CYQI 160600Z 00000KT 1/4SM FG VV002 17/17 A2986 RMK FG8 SLP113 DENSITY ALT
                 600FT =
2018-08-16 05:53 METAR CYQI 160553Z VRB02KT 1/4SM FG VV002 17/17 A2986 RMK FG8 SLP113 DENSITY ALT
                 600FT =
2018-08-16 05:23 METAR CYQI 160523Z 00000KT 3/4SM BR VV003 17/17 A2987 RMK FG8 SLP115 DENSITY ALT
                 500FT =
2018-08-16 05:00 METAR CYQI 160500Z 26004KT 1/4SM FG VV002 17/17 A2987 RMK FG8 SLP117 DENSITY ALT
                 500FT =
2018-08-16 04:00 METAR CYQI 160400Z 19005KT 1/4SM FG VV002 17/17 A2986 RMK FG8 SLP112 DENSITY ALT
                 600FT =
2018-08-16 03:00 METAR CYQI 160300Z VRB02KT 1/8SM FG VV001 18/18 A2988 RMK FG8 SLP120 DENSITY ALT
                 600FT =
2018-08-16 02:00 METAR CYQI 160200Z 28005KT 1/4SM FG VV002 18/18 A2988 RMK FG8 SLP121 DENSITY ALT
                 600FT =
2018-08-16 01:00 METAR CYQI 160100Z 17004KT 1/4SM FG VV002 19/19 A2987 RMK FG8 SLP115 DENSITY ALT
                 700FT =
2018-08-16 00:00 METAR CYQI 160000Z 18003KT 1/4SM FG VV002 19/19 A2984 RMK FG8 SLP107 DENSITY ALT
                 800FT =
2018-08-15 23:34 METAR CYQI 152334Z 23005KT 1/2SM FG VV002 19/19 A2985 RMK FG8 SLP110 DENSITY ALT
                 700FT =
2018-08-15 23:19 METAR CYQI 152319Z 23003KT 1SM BR OVC006 18/18 A2985 RMK FG6ST2 SLP109 DENSITY
                 ALT 700FT =
2018-08-15 23:09 METAR CYQI 152309Z 24004KT 3/4SM BR OVC007 19/18 A2985 RMK FG6ST2 SLP110 DENSITY
                 ALT 700FT =
2018-08-15 23:00 METAR CYQI 152300Z 24005KT 1/2SM FG VV002 19/19 A2985 RMK FG8 SLP110 DENSITY ALT
                 700FT =
2018-08-15 22:49 METAR CYQI 152249Z VRB04KT 1/2SM FG VV002 20/19 A2985 RMK FG8 SLP109 DENSITY ALT
                 800FT =
2018-08-15 22:45 METAR CYQI 152245Z 00000KT 5/8SM BR VV002 19/19 A2985 RMK FG8 SLP109 DENSITY ALT
                 800FT =
2018-08-15 22:15 METAR CYQI 152215Z 15005KT 120V250 3/4SM BR OVC005 20/19 A2983 RMK FG7ST1 SLP104
                 DENSITY ALT 900FT =
2018-08-15 22:00 METAR CYQI 152200Z 19004KT 1 1/4SM BR OVC004 20/19 A2984 RMK FG3ST5 SLP105
                 DENSITY ALT 900FT =
2018-08-15 21:54 METAR CYQI 152154Z 20005KT 1 3/4SM BR OVC008 20/19 A2983 RMK FG4ST4 SLP103
                 DENSITY ALT 900FT =
2018-08-15 21:52 METAR CYQI 152152Z 19007KT 2 1/2SM BR BKN007 20/19 A2983 RMK FG3ST4 SLP103
                 DENSITY ALT 900FT =
2018-08-15 21:00 METAR CYQI 152100Z 18007KT 4SM BR BKN008 20/18 A2984 RMK FG2ST5 SLP106 DENSITY
                 ALT 900FT =
2018-08-15 20:23 METAR CYQI 152023Z 21008KT 3SM BR BKN008 22/20 A2984 RMK FG1ST6 SLP108 DENSITY
                 ALT 1100FT =
2018-08-15 20:19 METAR CYQI 152019Z 22010KT 200V260 2SM BR BKN008 22/20 A2984 RMK FG2ST5 SLP108
                 DENSITY ALT 1100FT =
2018-08-15 20:02 METAR CYQI 152002Z 23008KT 180V240 1 1/2SM BR BKN007 22/20 A2984 RMK FG2ST5
                 SLP108 DENSITY ALT 1100FT =
2018-08-15 20:00 METAR CYQI 152000Z 22009KT 1 1/4SM BR BKN008 21/20 A2984 RMK FG2ST4 SLP107
                 DENSITY ALT 1100FT =
2018-08-15 19:51 METAR CYQI 151951Z 21007KT 180V240 3/4SM BR BKN008 21/20 A2984 RMK FG2ST4 SLP108
                 DENSITY ALT 1000FT =
2018-08-15 19:29 METAR CYQI 151929Z 21009G15KT 5/8SM BR OVC006 21/19 A2985 RMK FG4ST4 SLP109
                 DENSITY ALT 1000FT =
2018-08-15 19:23 METAR CYQI 151923Z 21011KT 3/4SM BR BKN007 21/19 A2985 RMK FG3ST4 SLP109 DENSITY
                 ALT 1000FT =
2018-08-15 19:13 METAR CYQI 151913Z 22011G18KT 5/8SM BR BKN007 21/20 A2985 RMK FG4ST3 SLP110
                 DENSITY ALT 1000FT =
2018-08-15 19:04 METAR CYQI 151904Z 23014KT 3/4SM BR BKN008 21/19 A2985 RMK FG3ST4 SLP111 DENSITY
                 ALT 1000FT =
2018-08-15 19:00 METAR CYQI 151900Z 23014KT 1 1/4SM BR BKN007 21/20 A2986 RMK FG3ST4 SLP112
                 DENSITY ALT 1000FT =
2018-08-15 18:41 METAR CYQI 151841Z 22011G16KT 1SM BR OVC007 21/20 A2986 RMK FG4ST4 SLP113
                 DENSITY ALT 1000FT =
2018-08-15 18:37 METAR CYQI 151837Z 22010KT 3/4SM BR OVC007 21/20 A2986 RMK FG7ST1 SLP114 DENSITY
                 ALT 1000FT =
2018-08-15 18:26 METAR CYQI 151826Z 22012G17KT 5/8SM BR OVC007 21/20 A2987 RMK FG7ST1 SLP117
                 DENSITY ALT 1000FT =
2018-08-15 18:24 METAR CYQI 151824Z 23011G17KT 3/4SM BR OVC007 21/20 A2987 RMK FG7ST1 SLP117
                 DENSITY ALT 1000FT =
2018-08-15 18:00 METAR CYQI 151800Z 22011G19KT 1SM BR OVC006 22/20 A2987 RMK FG7ST1 SLP116
                 DENSITY ALT 1000FT =
2018-08-15 17:47 METAR CYQI 151747Z 22012G19KT 3/4SM BR OVC007 22/20 A2987 RMK FG6ST2 SLP116
                 DENSITY ALT 1000FT =
2018-08-15 17:46 METAR CYQI 151746Z 22012G19KT 1 1/4SM BR OVC009 22/20 A2987 RMK FG5ST3 SLP116
                 DENSITY ALT 1100FT =
2018-08-15 17:45 METAR CYQI 151745Z 22012G19KT 1 3/4SM BR BKN012 OVC030 22/20 A2987 RMK FG4ST3SC1
                 SLP116 DENSITY ALT 1100FT =
2018-08-15 17:43 METAR CYQI 151743Z 22011G19KT 2 1/2SM BR BKN014 OVC034 22/20 A2987 RMK FG4ST2SC2
                 SLP115 DENSITY ALT 1100FT =
2018-08-15 17:00 METAR CYQI 151700Z 18012KT 5SM BR SCT004 BKN024 BKN250 23/21 A2986 RMK SF3SC3CI1
                 FG BNK S SLP114 DENSITY ALT 1300FT =
2018-08-15 16:05 METAR CYQI 151605Z 19009KT 6SM BR FEW006 SCT024 BKN033 BKN250 22/20 A2987 RMK
                 SF1SC3SC1CI1 VIS SE 3 SLP117 DENSITY ALT 1100FT =
2018-08-15 16:00 METAR CYQI 151600Z 19010G16KT 4SM BR SCT004 SCT006 BKN250 21/20 A2987 RMK
                 FG1SF2SC1CI2 VIS E-SE 2 SLP118 DENSITY ALT 1000FT =
2018-08-15 15:00 METAR CYQI 151500Z 18009KT 1SM BR SCT002 BKN006 21/21 A2988 RMK FG1SF3ST3 VIS
                 NW-NE 4 SLP119 DENSITY ALT 1000FT =
2018-08-15 14:49 METAR CYQI 151449Z 19010KT 1SM BR SCT002 BKN006 21/21 A2988 RMK FG2SF2ST3 VIS
                 NW-N 3 SLP120 DENSITY ALT 900FT =
2018-08-15 14:45 METAR CYQI 151445Z 19009KT 3/4SM BR SCT002 BKN007 20/20 A2988 RMK FG2SF2ST3 VIS
                 NE-N 2 SLP120 DENSITY ALT 900FT =
2018-08-15 14:43 METAR CYQI 151443Z 19009KT 1/2SM FG BKN006 20/20 A2988 RMK FG3ST4 VIS NW 2
                 SLP119 DENSITY ALT 900FT =
2018-08-15 14:40 METAR CYQI 151440Z 19010KT 1/2SM FG OVC006 20/20 A2988 RMK FG5ST3 SLP120 DENSITY
                 ALT 900FT =
2018-08-15 14:34 METAR CYQI 151434Z 18010KT 3/8SM FG OVC007 20/20 A2988 RMK FG6ST2 SLP120 DENSITY
                 ALT 800FT =
2018-08-15 14:14 METAR CYQI 151414Z 18007G16KT 1/2SM FG OVC007 20/20 A2988 RMK FG6ST2 SLP121
                 DENSITY ALT 800FT =
2018-08-15 14:00 METAR CYQI 151400Z 19012KT 3/4SM BR OVC007 20/20 A2989 RMK FG5ST3 SLP122 DENSITY
                 ALT 800FT =

Support USWX by starting your Amazon purchase here.